sensor_id;sensor_type;location;lat;lon;timestamp;P1;durP1;ratioP1;P2;durP2;ratioP2
13879;SDS011;7010;48.200;16.332;2022-08-19T00:01:28;3.47;;;2.67;;
13879;SDS011;7010;48.200;16.332;2022-08-19T00:04:02;4.35;;;3.25;;
13879;SDS011;7010;48.200;16.332;2022-08-19T00:06:31;5.13;;;3.08;;
13879;SDS011;7010;48.200;16.332;2022-08-19T00:09:03;3.53;;;3.03;;
13879;SDS011;7010;48.200;16.332;2022-08-19T00:11:32;3.33;;;3.03;;
13879;SDS011;7010;48.200;16.332;2022-08-19T00:14:04;3.85;;;3.17;;
13879;SDS011;7010;48.200;16.332;2022-08-19T00:16:34;3.45;;;2.78;;
13879;SDS011;7010;48.200;16.332;2022-08-19T00:19:04;3.33;;;2.67;;
13879;SDS011;7010;48.200;16.332;2022-08-19T00:21:32;3.72;;;2.55;;
13879;SDS011;7010;48.200;16.332;2022-08-19T00:24:06;7.72;;;6.93;;
13879;SDS011;7010;48.200;16.332;2022-08-19T00:26:36;10.20;;;3.92;;
13879;SDS011;7010;48.200;16.332;2022-08-19T00:29:07;6.22;;;3.40;;
13879;SDS011;7010;48.200;16.332;2022-08-19T00:31:38;7.85;;;3.05;;
13879;SDS011;7010;48.200;16.332;2022-08-19T00:34:08;4.28;;;3.05;;
13879;SDS011;7010;48.200;16.332;2022-08-19T00:36:38;3.65;;;2.85;;
13879;SDS011;7010;48.200;16.332;2022-08-19T00:39:07;3.33;;;2.95;;
13879;SDS011;7010;48.200;16.332;2022-08-19T00:41:36;3.58;;;2.92;;
13879;SDS011;7010;48.200;16.332;2022-08-19T00:44:05;21.17;;;3.10;;
13879;SDS011;7010;48.200;16.332;2022-08-19T00:46:41;4.32;;;3.22;;
13879;SDS011;7010;48.200;16.332;2022-08-19T00:49:24;3.95;;;2.25;;
13879;SDS011;7010;48.200;16.332;2022-08-19T00:51:55;4.93;;;2.78;;
13879;SDS011;7010;48.200;16.332;2022-08-19T00:54:27;3.42;;;2.92;;
13879;SDS011;7010;48.200;16.332;2022-08-19T00:56:57;7.75;;;3.08;;
13879;SDS011;7010;48.200;16.332;2022-08-19T00:59:28;4.13;;;2.83;;
13879;SDS011;7010;48.200;16.332;2022-08-19T01:02:17;2.78;;;2.58;;
13879;SDS011;7010;48.200;16.332;2022-08-19T01:04:46;4.15;;;3.28;;
13879;SDS011;7010;48.200;16.332;2022-08-19T01:07:14;4.10;;;2.60;;
13879;SDS011;7010;48.200;16.332;2022-08-19T01:09:45;7.50;;;3.00;;
13879;SDS011;7010;48.200;16.332;2022-08-19T01:12:13;3.15;;;2.85;;
13879;SDS011;7010;48.200;16.332;2022-08-19T01:14:44;3.20;;;2.90;;
13879;SDS011;7010;48.200;16.332;2022-08-19T01:17:13;2.97;;;2.78;;
13879;SDS011;7010;48.200;16.332;2022-08-19T01:19:42;3.58;;;3.08;;
13879;SDS011;7010;48.200;16.332;2022-08-19T01:22:14;4.50;;;2.90;;
13879;SDS011;7010;48.200;16.332;2022-08-19T01:24:57;4.28;;;3.00;;
13879;SDS011;7010;48.200;16.332;2022-08-19T01:27:25;4.38;;;2.85;;
13879;SDS011;7010;48.200;16.332;2022-08-19T01:30:03;3.17;;;2.67;;
13879;SDS011;7010;48.200;16.332;2022-08-19T01:32:33;3.50;;;3.10;;
13879;SDS011;7010;48.200;16.332;2022-08-19T01:35:02;5.60;;;2.88;;
13879;SDS011;7010;48.200;16.332;2022-08-19T01:37:41;4.63;;;2.70;;
13879;SDS011;7010;48.200;16.332;2022-08-19T01:40:11;2.90;;;2.60;;
13879;SDS011;7010;48.200;16.332;2022-08-19T01:42:40;3.50;;;3.20;;
13879;SDS011;7010;48.200;16.332;2022-08-19T01:45:09;3.38;;;2.47;;
13879;SDS011;7010;48.200;16.332;2022-08-19T01:47:38;3.00;;;2.70;;
13879;SDS011;7010;48.200;16.332;2022-08-19T01:50:07;7.32;;;2.90;;
13879;SDS011;7010;48.200;16.332;2022-08-19T01:52:36;2.67;;;2.47;;
13879;SDS011;7010;48.200;16.332;2022-08-19T01:55:06;6.32;;;2.90;;
13879;SDS011;7010;48.200;16.332;2022-08-19T01:57:39;3.95;;;2.92;;
13879;SDS011;7010;48.200;16.332;2022-08-19T02:00:10;3.40;;;3.05;;
13879;SDS011;7010;48.200;16.332;2022-08-19T02:02:41;5.80;;;3.15;;
13879;SDS011;7010;48.200;16.332;2022-08-19T02:05:10;3.40;;;2.85;;
13879;SDS011;7010;48.200;16.332;2022-08-19T02:07:39;4.75;;;3.42;;
13879;SDS011;7010;48.200;16.332;2022-08-19T02:10:09;2.95;;;2.65;;
13879;SDS011;7010;48.200;16.332;2022-08-19T02:12:43;4.30;;;3.47;;
13879;SDS011;7010;48.200;16.332;2022-08-19T02:15:13;2.15;;;2.05;;
13879;SDS011;7010;48.200;16.332;2022-08-19T02:17:41;3.42;;;2.80;;
13879;SDS011;7010;48.200;16.332;2022-08-19T02:20:11;4.07;;;2.90;;
13879;SDS011;7010;48.200;16.332;2022-08-19T02:22:40;3.10;;;2.65;;
13879;SDS011;7010;48.200;16.332;2022-08-19T02:25:10;2.40;;;2.17;;
13879;SDS011;7010;48.200;16.332;2022-08-19T02:27:40;3.55;;;2.58;;
13879;SDS011;7010;48.200;16.332;2022-08-19T02:30:12;6.72;;;2.85;;
13879;SDS011;7010;48.200;16.332;2022-08-19T02:32:42;2.53;;;2.33;;
13879;SDS011;7010;48.200;16.332;2022-08-19T02:35:11;2.70;;;2.45;;
13879;SDS011;7010;48.200;16.332;2022-08-19T02:37:40;8.38;;;3.05;;
13879;SDS011;7010;48.200;16.332;2022-08-19T02:40:26;2.70;;;2.50;;
13879;SDS011;7010;48.200;16.332;2022-08-19T02:42:54;3.65;;;2.90;;
13879;SDS011;7010;48.200;16.332;2022-08-19T02:45:24;4.53;;;2.50;;
13879;SDS011;7010;48.200;16.332;2022-08-19T02:47:52;3.88;;;3.58;;
13879;SDS011;7010;48.200;16.332;2022-08-19T02:50:20;4.15;;;3.25;;
13879;SDS011;7010;48.200;16.332;2022-08-19T02:52:49;8.07;;;3.33;;
13879;SDS011;7010;48.200;16.332;2022-08-19T02:55:17;2.90;;;2.70;;
13879;SDS011;7010;48.200;16.332;2022-08-19T02:57:47;3.05;;;2.85;;
13879;SDS011;7010;48.200;16.332;2022-08-19T03:00:15;4.78;;;3.42;;
13879;SDS011;7010;48.200;16.332;2022-08-19T03:02:45;3.63;;;3.25;;
13879;SDS011;7010;48.200;16.332;2022-08-19T03:05:15;3.17;;;2.88;;
13879;SDS011;7010;48.200;16.332;2022-08-19T03:07:50;4.57;;;3.00;;
13879;SDS011;7010;48.200;16.332;2022-08-19T03:10:18;3.53;;;3.22;;
13879;SDS011;7010;48.200;16.332;2022-08-19T03:12:47;3.40;;;3.10;;
13879;SDS011;7010;48.200;16.332;2022-08-19T03:15:15;5.22;;;3.95;;
13879;SDS011;7010;48.200;16.332;2022-08-19T03:17:43;3.92;;;3.40;;
13879;SDS011;7010;48.200;16.332;2022-08-19T03:20:13;4.38;;;3.67;;
13879;SDS011;7010;48.200;16.332;2022-08-19T03:22:41;3.63;;;3.30;;
13879;SDS011;7010;48.200;16.332;2022-08-19T03:25:09;5.15;;;3.40;;
13879;SDS011;7010;48.200;16.332;2022-08-19T03:27:38;4.40;;;3.40;;
13879;SDS011;7010;48.200;16.332;2022-08-19T03:30:06;4.28;;;3.53;;
13879;SDS011;7010;48.200;16.332;2022-08-19T03:32:37;4.13;;;3.72;;
13879;SDS011;7010;48.200;16.332;2022-08-19T03:35:24;4.32;;;3.92;;
13879;SDS011;7010;48.200;16.332;2022-08-19T03:37:52;5.13;;;3.72;;
13879;SDS011;7010;48.200;16.332;2022-08-19T03:40:20;3.88;;;3.50;;
13879;SDS011;7010;48.200;16.332;2022-08-19T03:42:48;6.13;;;4.40;;
13879;SDS011;7010;48.200;16.332;2022-08-19T03:45:17;4.13;;;3.72;;
13879;SDS011;7010;48.200;16.332;2022-08-19T03:47:45;3.38;;;3.08;;
13879;SDS011;7010;48.200;16.332;2022-08-19T03:50:14;4.65;;;3.08;;
13879;SDS011;7010;48.200;16.332;2022-08-19T03:52:44;4.53;;;3.85;;
13879;SDS011;7010;48.200;16.332;2022-08-19T03:55:16;3.85;;;3.55;;
13879;SDS011;7010;48.200;16.332;2022-08-19T03:57:44;7.80;;;3.55;;
13879;SDS011;7010;48.200;16.332;2022-08-19T04:00:15;5.53;;;3.58;;
13879;SDS011;7010;48.200;16.332;2022-08-19T04:02:44;3.55;;;3.25;;
13879;SDS011;7010;48.200;16.332;2022-08-19T04:05:25;4.82;;;3.55;;
13879;SDS011;7010;48.200;16.332;2022-08-19T04:07:57;3.53;;;3.22;;
13879;SDS011;7010;48.200;16.332;2022-08-19T04:10:25;6.32;;;3.50;;
13879;SDS011;7010;48.200;16.332;2022-08-19T04:12:54;3.45;;;3.13;;
13879;SDS011;7010;48.200;16.332;2022-08-19T04:15:22;4.18;;;3.13;;
13879;SDS011;7010;48.200;16.332;2022-08-19T04:17:51;5.05;;;3.40;;
13879;SDS011;7010;48.200;16.332;2022-08-19T04:20:19;4.05;;;3.03;;
13879;SDS011;7010;48.200;16.332;2022-08-19T04:22:47;3.20;;;2.90;;
13879;SDS011;7010;48.200;16.332;2022-08-19T04:25:17;4.05;;;3.65;;
13879;SDS011;7010;48.200;16.332;2022-08-19T04:27:46;3.17;;;2.88;;
13879;SDS011;7010;48.200;16.332;2022-08-19T04:30:14;4.93;;;2.90;;
13879;SDS011;7010;48.200;16.332;2022-08-19T04:32:43;5.40;;;3.45;;
13879;SDS011;7010;48.200;16.332;2022-08-19T04:35:12;4.95;;;4.03;;
13879;SDS011;7010;48.200;16.332;2022-08-19T04:37:43;4.45;;;3.00;;
13879;SDS011;7010;48.200;16.332;2022-08-19T04:40:12;11.93;;;2.80;;
13879;SDS011;7010;48.200;16.332;2022-08-19T04:42:59;14.05;;;3.45;;
13879;SDS011;7010;48.200;16.332;2022-08-19T04:45:28;4.25;;;3.83;;
13879;SDS011;7010;48.200;16.332;2022-08-19T04:48:09;4.75;;;4.25;;
13879;SDS011;7010;48.200;16.332;2022-08-19T04:50:52;3.60;;;3.28;;
13879;SDS011;7010;48.200;16.332;2022-08-19T04:53:24;8.27;;;3.03;;
13879;SDS011;7010;48.200;16.332;2022-08-19T04:55:54;3.50;;;3.03;;
13879;SDS011;7010;48.200;16.332;2022-08-19T04:58:25;4.15;;;3.75;;
13879;SDS011;7010;48.200;16.332;2022-08-19T05:00:54;4.15;;;3.47;;
13879;SDS011;7010;48.200;16.332;2022-08-19T05:03:23;6.35;;;4.45;;
13879;SDS011;7010;48.200;16.332;2022-08-19T05:05:55;3.47;;;3.25;;
13879;SDS011;7010;48.200;16.332;2022-08-19T05:08:24;5.47;;;4.10;;
13879;SDS011;7010;48.200;16.332;2022-08-19T05:10:56;5.97;;;3.88;;
13879;SDS011;7010;48.200;16.332;2022-08-19T05:13:26;5.30;;;4.25;;
13879;SDS011;7010;48.200;16.332;2022-08-19T05:15:55;4.68;;;4.25;;
13879;SDS011;7010;48.200;16.332;2022-08-19T05:18:25;5.10;;;4.60;;
13879;SDS011;7010;48.200;16.332;2022-08-19T05:21:12;4.47;;;4.07;;
13879;SDS011;7010;48.200;16.332;2022-08-19T05:24:00;4.82;;;4.45;;
13879;SDS011;7010;48.200;16.332;2022-08-19T05:26:29;14.93;;;5.50;;
13879;SDS011;7010;48.200;16.332;2022-08-19T05:28:59;5.70;;;5.25;;
13879;SDS011;7010;48.200;16.332;2022-08-19T05:31:27;6.90;;;6.13;;
13879;SDS011;7010;48.200;16.332;2022-08-19T05:33:56;5.35;;;4.95;;
13879;SDS011;7010;48.200;16.332;2022-08-19T05:36:25;5.32;;;4.93;;
13879;SDS011;7010;48.200;16.332;2022-08-19T05:38:53;5.75;;;5.28;;
13879;SDS011;7010;48.200;16.332;2022-08-19T05:41:22;6.10;;;5.63;;
13879;SDS011;7010;48.200;16.332;2022-08-19T05:43:55;5.43;;;4.97;;
13879;SDS011;7010;48.200;16.332;2022-08-19T05:46:25;5.97;;;5.45;;
13879;SDS011;7010;48.200;16.332;2022-08-19T05:48:53;6.68;;;6.07;;
13879;SDS011;7010;48.200;16.332;2022-08-19T05:51:22;8.77;;;6.50;;
13879;SDS011;7010;48.200;16.332;2022-08-19T05:53:54;11.82;;;6.97;;
13879;SDS011;7010;48.200;16.332;2022-08-19T05:56:23;15.02;;;5.35;;
13879;SDS011;7010;48.200;16.332;2022-08-19T05:58:51;7.95;;;6.55;;
13879;SDS011;7010;48.200;16.332;2022-08-19T06:01:25;5.95;;;5.35;;
13879;SDS011;7010;48.200;16.332;2022-08-19T06:03:54;8.55;;;6.15;;
13879;SDS011;7010;48.200;16.332;2022-08-19T06:06:22;6.80;;;6.10;;
13879;SDS011;7010;48.200;16.332;2022-08-19T06:08:50;5.95;;;5.35;;
13879;SDS011;7010;48.200;16.332;2022-08-19T06:11:20;6.68;;;5.90;;
13879;SDS011;7010;48.200;16.332;2022-08-19T06:13:51;6.20;;;5.70;;
13879;SDS011;7010;48.200;16.332;2022-08-19T06:16:27;11.50;;;7.07;;
13879;SDS011;7010;48.200;16.332;2022-08-19T06:18:59;6.35;;;5.85;;
13879;SDS011;7010;48.200;16.332;2022-08-19T06:21:30;5.68;;;5.25;;
13879;SDS011;7010;48.200;16.332;2022-08-19T06:23:58;6.88;;;6.28;;
13879;SDS011;7010;48.200;16.332;2022-08-19T06:26:27;7.88;;;5.78;;
13879;SDS011;7010;48.200;16.332;2022-08-19T06:28:55;6.13;;;5.55;;
13879;SDS011;7010;48.200;16.332;2022-08-19T06:31:24;7.05;;;6.45;;
13879;SDS011;7010;48.200;16.332;2022-08-19T06:33:55;5.30;;;4.90;;
13879;SDS011;7010;48.200;16.332;2022-08-19T06:36:25;5.82;;;5.32;;
13879;SDS011;7010;48.200;16.332;2022-08-19T06:38:58;9.88;;;5.30;;
13879;SDS011;7010;48.200;16.332;2022-08-19T06:41:27;6.22;;;5.70;;
13879;SDS011;7010;48.200;16.332;2022-08-19T06:43:56;5.50;;;4.97;;
13879;SDS011;7010;48.200;16.332;2022-08-19T06:46:26;5.20;;;4.70;;
13879;SDS011;7010;48.200;16.332;2022-08-19T06:49:00;7.05;;;5.57;;
13879;SDS011;7010;48.200;16.332;2022-08-19T06:51:30;6.63;;;4.70;;
13879;SDS011;7010;48.200;16.332;2022-08-19T06:54:07;5.70;;;5.18;;
13879;SDS011;7010;48.200;16.332;2022-08-19T06:56:45;5.38;;;4.50;;
13879;SDS011;7010;48.200;16.332;2022-08-19T06:59:15;5.57;;;5.07;;
13879;SDS011;7010;48.200;16.332;2022-08-19T07:01:47;6.97;;;5.18;;
13879;SDS011;7010;48.200;16.332;2022-08-19T07:04:17;4.88;;;4.47;;
13879;SDS011;7010;48.200;16.332;2022-08-19T07:06:48;4.95;;;4.47;;
13879;SDS011;7010;48.200;16.332;2022-08-19T07:09:20;5.32;;;4.82;;
13879;SDS011;7010;48.200;16.332;2022-08-19T07:11:50;7.20;;;4.78;;
13879;SDS011;7010;48.200;16.332;2022-08-19T07:14:20;4.35;;;4.03;;
13879;SDS011;7010;48.200;16.332;2022-08-19T07:16:53;4.75;;;4.35;;
13879;SDS011;7010;48.200;16.332;2022-08-19T07:19:25;5.18;;;4.60;;
13879;SDS011;7010;48.200;16.332;2022-08-19T07:21:54;10.73;;;4.32;;
13879;SDS011;7010;48.200;16.332;2022-08-19T07:24:23;4.43;;;4.03;;
13879;SDS011;7010;48.200;16.332;2022-08-19T07:26:57;4.82;;;4.40;;
13879;SDS011;7010;48.200;16.332;2022-08-19T07:29:34;4.30;;;3.55;;
13879;SDS011;7010;48.200;16.332;2022-08-19T07:32:05;3.60;;;3.40;;
13879;SDS011;7010;48.200;16.332;2022-08-19T07:34:38;3.70;;;3.40;;
13879;SDS011;7010;48.200;16.332;2022-08-19T07:37:08;4.82;;;3.88;;
13879;SDS011;7010;48.200;16.332;2022-08-19T07:39:36;3.35;;;3.15;;
13879;SDS011;7010;48.200;16.332;2022-08-19T07:42:07;3.67;;;3.38;;
13879;SDS011;7010;48.200;16.332;2022-08-19T07:44:39;3.90;;;3.60;;
13879;SDS011;7010;48.200;16.332;2022-08-19T07:47:17;4.03;;;3.72;;
13879;SDS011;7010;48.200;16.332;2022-08-19T07:50:06;4.00;;;3.60;;
13879;SDS011;7010;48.200;16.332;2022-08-19T07:52:37;3.03;;;2.83;;
13879;SDS011;7010;48.200;16.332;2022-08-19T07:55:06;2.72;;;2.53;;
13879;SDS011;7010;48.200;16.332;2022-08-19T07:57:56;4.55;;;2.92;;
13879;SDS011;7010;48.200;16.332;2022-08-19T08:00:24;3.00;;;2.70;;
13879;SDS011;7010;48.200;16.332;2022-08-19T08:02:54;3.80;;;3.40;;
13879;SDS011;7010;48.200;16.332;2022-08-19T08:05:23;4.22;;;3.83;;
13879;SDS011;7010;48.200;16.332;2022-08-19T08:08:09;4.05;;;3.75;;
13879;SDS011;7010;48.200;16.332;2022-08-19T08:11:11;3.05;;;2.78;;
13879;SDS011;7010;48.200;16.332;2022-08-19T08:13:41;3.40;;;3.10;;
13879;SDS011;7010;48.200;16.332;2022-08-19T08:16:09;3.55;;;3.15;;
13879;SDS011;7010;48.200;16.332;2022-08-19T08:18:41;4.03;;;3.63;;
13879;SDS011;7010;48.200;16.332;2022-08-19T08:21:18;3.03;;;2.83;;
13879;SDS011;7010;48.200;16.332;2022-08-19T08:23:46;3.30;;;3.08;;
13879;SDS011;7010;48.200;16.332;2022-08-19T08:26:18;5.78;;;3.40;;
13879;SDS011;7010;48.200;16.332;2022-08-19T08:28:46;3.35;;;2.92;;
13879;SDS011;7010;48.200;16.332;2022-08-19T08:31:15;3.88;;;3.58;;
13879;SDS011;7010;48.200;16.332;2022-08-19T08:33:46;3.58;;;3.22;;
13879;SDS011;7010;48.200;16.332;2022-08-19T08:36:15;3.72;;;3.42;;
13879;SDS011;7010;48.200;16.332;2022-08-19T08:38:44;4.68;;;2.85;;
13879;SDS011;7010;48.200;16.332;2022-08-19T08:41:16;3.67;;;3.30;;
13879;SDS011;7010;48.200;16.332;2022-08-19T08:43:50;4.30;;;3.25;;
13879;SDS011;7010;48.200;16.332;2022-08-19T08:46:20;2.97;;;2.75;;
13879;SDS011;7010;48.200;16.332;2022-08-19T08:48:59;3.50;;;3.10;;
13879;SDS011;7010;48.200;16.332;2022-08-19T08:51:32;3.42;;;3.13;;
13879;SDS011;7010;48.200;16.332;2022-08-19T08:54:04;3.28;;;2.92;;
13879;SDS011;7010;48.200;16.332;2022-08-19T08:56:37;4.03;;;2.97;;
13879;SDS011;7010;48.200;16.332;2022-08-19T08:59:06;3.60;;;3.33;;
13879;SDS011;7010;48.200;16.332;2022-08-19T09:01:48;3.75;;;3.35;;
13879;SDS011;7010;48.200;16.332;2022-08-19T09:04:17;4.43;;;3.45;;
13879;SDS011;7010;48.200;16.332;2022-08-19T09:06:50;3.25;;;3.05;;
13879;SDS011;7010;48.200;16.332;2022-08-19T09:09:26;3.50;;;3.20;;
13879;SDS011;7010;48.200;16.332;2022-08-19T09:12:01;3.70;;;3.40;;
13879;SDS011;7010;48.200;16.332;2022-08-19T09:14:39;4.05;;;3.75;;
13879;SDS011;7010;48.200;16.332;2022-08-19T09:17:18;4.13;;;3.72;;
13879;SDS011;7010;48.200;16.332;2022-08-19T09:19:59;4.78;;;3.28;;
13879;SDS011;7010;48.200;16.332;2022-08-19T09:22:35;6.22;;;3.70;;
13879;SDS011;7010;48.200;16.332;2022-08-19T09:25:04;4.18;;;3.78;;
13879;SDS011;7010;48.200;16.332;2022-08-19T09:27:34;4.35;;;4.00;;
13879;SDS011;7010;48.200;16.332;2022-08-19T09:30:09;3.70;;;3.40;;
13879;SDS011;7010;48.200;16.332;2022-08-19T09:32:39;3.55;;;3.25;;
13879;SDS011;7010;48.200;16.332;2022-08-19T09:35:11;4.10;;;3.80;;
13879;SDS011;7010;48.200;16.332;2022-08-19T09:37:41;3.50;;;3.20;;
13879;SDS011;7010;48.200;16.332;2022-08-19T09:40:11;4.10;;;3.70;;
13879;SDS011;7010;48.200;16.332;2022-08-19T09:42:40;2.80;;;2.60;;
13879;SDS011;7010;48.200;16.332;2022-08-19T09:45:15;3.88;;;3.47;;
13879;SDS011;7010;48.200;16.332;2022-08-19T09:47:47;7.57;;;3.50;;
13879;SDS011;7010;48.200;16.332;2022-08-19T09:50:21;3.92;;;3.53;;
13879;SDS011;7010;48.200;16.332;2022-08-19T09:52:50;6.15;;;4.03;;
13879;SDS011;7010;48.200;16.332;2022-08-19T09:55:23;4.00;;;3.40;;
13879;SDS011;7010;48.200;16.332;2022-08-19T09:57:57;4.10;;;3.58;;
13879;SDS011;7010;48.200;16.332;2022-08-19T10:00:26;3.45;;;3.22;;
13879;SDS011;7010;48.200;16.332;2022-08-19T10:02:54;4.43;;;3.80;;
13879;SDS011;7010;48.200;16.332;2022-08-19T10:05:24;3.75;;;3.45;;
13879;SDS011;7010;48.200;16.332;2022-08-19T10:08:13;3.97;;;3.58;;
13879;SDS011;7010;48.200;16.332;2022-08-19T10:10:43;3.35;;;3.05;;
13879;SDS011;7010;48.200;16.332;2022-08-19T10:13:13;5.85;;;3.80;;
13879;SDS011;7010;48.200;16.332;2022-08-19T10:15:43;5.72;;;3.58;;
13879;SDS011;7010;48.200;16.332;2022-08-19T10:18:14;3.63;;;3.33;;
13879;SDS011;7010;48.200;16.332;2022-08-19T10:20:46;4.15;;;3.75;;
13879;SDS011;7010;48.200;16.332;2022-08-19T10:23:18;4.00;;;3.70;;
13879;SDS011;7010;48.200;16.332;2022-08-19T10:25:47;4.35;;;3.72;;
13879;SDS011;7010;48.200;16.332;2022-08-19T10:28:16;4.40;;;4.00;;
13879;SDS011;7010;48.200;16.332;2022-08-19T10:30:45;5.47;;;4.40;;
13879;SDS011;7010;48.200;16.332;2022-08-19T10:33:13;5.15;;;4.15;;
13879;SDS011;7010;48.200;16.332;2022-08-19T10:36:04;7.30;;;4.40;;
13879;SDS011;7010;48.200;16.332;2022-08-19T10:38:36;5.95;;;4.07;;
13879;SDS011;7010;48.200;16.332;2022-08-19T10:41:16;4.30;;;3.30;;
13879;SDS011;7010;48.200;16.332;2022-08-19T10:43:46;4.43;;;3.75;;
13879;SDS011;7010;48.200;16.332;2022-08-19T10:46:14;4.15;;;3.60;;
13879;SDS011;7010;48.200;16.332;2022-08-19T10:48:44;4.28;;;3.88;;
13879;SDS011;7010;48.200;16.332;2022-08-19T10:51:16;6.70;;;5.25;;
13879;SDS011;7010;48.200;16.332;2022-08-19T10:54:12;5.75;;;4.20;;
13879;SDS011;7010;48.200;16.332;2022-08-19T10:56:41;5.05;;;3.95;;
13879;SDS011;7010;48.200;16.332;2022-08-19T10:59:23;4.63;;;4.07;;
13879;SDS011;7010;48.200;16.332;2022-08-19T11:02:01;5.82;;;4.82;;
13879;SDS011;7010;48.200;16.332;2022-08-19T11:04:31;4.78;;;4.00;;
13879;SDS011;7010;48.200;16.332;2022-08-19T11:07:02;5.03;;;4.40;;
13879;SDS011;7010;48.200;16.332;2022-08-19T11:09:36;7.38;;;4.15;;
13879;SDS011;7010;48.200;16.332;2022-08-19T11:12:06;6.00;;;4.03;;
13879;SDS011;7010;48.200;16.332;2022-08-19T11:14:36;4.10;;;3.67;;
13879;SDS011;7010;48.200;16.332;2022-08-19T11:17:05;6.00;;;4.45;;
13879;SDS011;7010;48.200;16.332;2022-08-19T11:19:34;5.38;;;3.80;;
13879;SDS011;7010;48.200;16.332;2022-08-19T11:22:06;7.05;;;4.30;;
13879;SDS011;7010;48.200;16.332;2022-08-19T11:24:41;5.93;;;3.80;;
13879;SDS011;7010;48.200;16.332;2022-08-19T11:27:09;4.22;;;3.50;;
13879;SDS011;7010;48.200;16.332;2022-08-19T11:29:38;4.22;;;3.67;;
13879;SDS011;7010;48.200;16.332;2022-08-19T11:32:07;6.00;;;3.90;;
13879;SDS011;7010;48.200;16.332;2022-08-19T11:34:37;5.90;;;3.72;;
13879;SDS011;7010;48.200;16.332;2022-08-19T11:37:06;8.93;;;4.57;;
13879;SDS011;7010;48.200;16.332;2022-08-19T11:39:35;7.28;;;3.97;;
13879;SDS011;7010;48.200;16.332;2022-08-19T11:42:05;7.70;;;4.43;;
13879;SDS011;7010;48.200;16.332;2022-08-19T11:44:48;8.70;;;4.18;;
13879;SDS011;7010;48.200;16.332;2022-08-19T11:47:16;6.85;;;4.32;;
13879;SDS011;7010;48.200;16.332;2022-08-19T11:49:45;5.50;;;3.83;;
13879;SDS011;7010;48.200;16.332;2022-08-19T11:52:15;25.23;;;4.13;;
13879;SDS011;7010;48.200;16.332;2022-08-19T11:54:43;6.13;;;3.60;;
13879;SDS011;7010;48.200;16.332;2022-08-19T11:57:11;5.72;;;3.88;;
13879;SDS011;7010;48.200;16.332;2022-08-19T11:59:47;6.63;;;3.75;;
13879;SDS011;7010;48.200;16.332;2022-08-19T12:02:16;8.43;;;4.20;;
13879;SDS011;7010;48.200;16.332;2022-08-19T12:04:45;9.05;;;3.78;;
13879;SDS011;7010;48.200;16.332;2022-08-19T12:07:15;6.97;;;4.32;;
13879;SDS011;7010;48.200;16.332;2022-08-19T12:09:43;6.22;;;3.72;;
13879;SDS011;7010;48.200;16.332;2022-08-19T12:12:14;5.40;;;3.80;;
13879;SDS011;7010;48.200;16.332;2022-08-19T12:14:42;7.78;;;4.05;;
13879;SDS011;7010;48.200;16.332;2022-08-19T12:17:12;8.25;;;4.90;;
13879;SDS011;7010;48.200;16.332;2022-08-19T12:19:41;6.90;;;4.40;;
13879;SDS011;7010;48.200;16.332;2022-08-19T12:22:09;4.45;;;3.75;;
13879;SDS011;7010;48.200;16.332;2022-08-19T12:24:40;5.25;;;4.03;;
13879;SDS011;7010;48.200;16.332;2022-08-19T12:27:08;14.32;;;4.38;;
13879;SDS011;7010;48.200;16.332;2022-08-19T12:29:38;7.90;;;4.78;;
13879;SDS011;7010;48.200;16.332;2022-08-19T12:32:07;6.50;;;3.90;;
13879;SDS011;7010;48.200;16.332;2022-08-19T12:34:37;13.25;;;4.82;;
13879;SDS011;7010;48.200;16.332;2022-08-19T12:37:06;6.57;;;3.95;;
13879;SDS011;7010;48.200;16.332;2022-08-19T12:39:36;11.05;;;3.95;;
13879;SDS011;7010;48.200;16.332;2022-08-19T12:42:07;4.43;;;3.42;;
13879;SDS011;7010;48.200;16.332;2022-08-19T12:44:35;10.05;;;4.00;;
13879;SDS011;7010;48.200;16.332;2022-08-19T12:47:07;7.40;;;3.75;;
13879;SDS011;7010;48.200;16.332;2022-08-19T12:49:36;5.72;;;4.03;;
13879;SDS011;7010;48.200;16.332;2022-08-19T12:52:21;9.95;;;4.40;;
13879;SDS011;7010;48.200;16.332;2022-08-19T12:54:50;5.72;;;3.90;;
13879;SDS011;7010;48.200;16.332;2022-08-19T12:57:22;4.55;;;3.63;;
13879;SDS011;7010;48.200;16.332;2022-08-19T12:59:59;6.10;;;4.15;;
13879;SDS011;7010;48.200;16.332;2022-08-19T13:02:30;4.70;;;3.75;;
13879;SDS011;7010;48.200;16.332;2022-08-19T13:05:05;4.68;;;4.22;;
13879;SDS011;7010;48.200;16.332;2022-08-19T13:07:36;4.75;;;3.83;;
13879;SDS011;7010;48.200;16.332;2022-08-19T13:10:05;8.77;;;3.80;;
13879;SDS011;7010;48.200;16.332;2022-08-19T13:12:36;4.47;;;4.03;;
13879;SDS011;7010;48.200;16.332;2022-08-19T13:15:05;8.27;;;4.60;;
13879;SDS011;7010;48.200;16.332;2022-08-19T13:17:36;7.13;;;4.07;;
13879;SDS011;7010;48.200;16.332;2022-08-19T13:20:06;7.13;;;3.90;;
13879;SDS011;7010;48.200;16.332;2022-08-19T13:22:37;5.07;;;3.35;;
13879;SDS011;7010;48.200;16.332;2022-08-19T13:25:06;5.55;;;3.42;;
13879;SDS011;7010;48.200;16.332;2022-08-19T13:27:37;5.75;;;4.15;;
13879;SDS011;7010;48.200;16.332;2022-08-19T13:30:06;5.70;;;3.95;;
13879;SDS011;7010;48.200;16.332;2022-08-19T13:32:54;7.43;;;3.75;;
13879;SDS011;7010;48.200;16.332;2022-08-19T13:35:42;20.13;;;3.75;;
13879;SDS011;7010;48.200;16.332;2022-08-19T13:38:13;8.88;;;4.07;;
13879;SDS011;7010;48.200;16.332;2022-08-19T13:40:44;10.13;;;3.85;;
13879;SDS011;7010;48.200;16.332;2022-08-19T13:43:14;4.88;;;3.75;;
13879;SDS011;7010;48.200;16.332;2022-08-19T13:45:49;5.70;;;3.47;;
13879;SDS011;7010;48.200;16.332;2022-08-19T13:48:20;5.70;;;3.67;;
13879;SDS011;7010;48.200;16.332;2022-08-19T13:50:49;9.52;;;4.68;;
13879;SDS011;7010;48.200;16.332;2022-08-19T13:53:18;7.88;;;4.03;;
13879;SDS011;7010;48.200;16.332;2022-08-19T13:55:46;5.00;;;3.83;;
13879;SDS011;7010;48.200;16.332;2022-08-19T13:58:18;12.00;;;3.33;;
13879;SDS011;7010;48.200;16.332;2022-08-19T14:00:46;8.35;;;4.18;;
13879;SDS011;7010;48.200;16.332;2022-08-19T14:03:16;8.32;;;4.00;;
13879;SDS011;7010;48.200;16.332;2022-08-19T14:05:44;6.18;;;3.83;;
13879;SDS011;7010;48.200;16.332;2022-08-19T14:08:13;3.83;;;3.42;;
13879;SDS011;7010;48.200;16.332;2022-08-19T14:10:41;13.80;;;4.05;;
13879;SDS011;7010;48.200;16.332;2022-08-19T14:13:13;5.57;;;3.30;;
13879;SDS011;7010;48.200;16.332;2022-08-19T14:15:45;4.05;;;3.65;;
13879;SDS011;7010;48.200;16.332;2022-08-19T14:18:14;9.45;;;3.95;;
13879;SDS011;7010;48.200;16.332;2022-08-19T14:20:44;4.05;;;3.60;;
13879;SDS011;7010;48.200;16.332;2022-08-19T14:23:12;6.03;;;3.45;;
13879;SDS011;7010;48.200;16.332;2022-08-19T14:25:40;9.13;;;3.60;;
13879;SDS011;7010;48.200;16.332;2022-08-19T14:28:09;4.03;;;3.22;;
13879;SDS011;7010;48.200;16.332;2022-08-19T14:30:38;6.15;;;3.95;;
13879;SDS011;7010;48.200;16.332;2022-08-19T14:33:07;7.20;;;3.42;;
13879;SDS011;7010;48.200;16.332;2022-08-19T14:35:36;8.25;;;4.10;;
13879;SDS011;7010;48.200;16.332;2022-08-19T14:38:05;18.45;;;3.15;;
13879;SDS011;7010;48.200;16.332;2022-08-19T14:40:34;7.50;;;3.17;;
13879;SDS011;7010;48.200;16.332;2022-08-19T14:43:03;3.63;;;3.33;;
13879;SDS011;7010;48.200;16.332;2022-08-19T14:45:33;5.88;;;3.53;;
13879;SDS011;7010;48.200;16.332;2022-08-19T14:48:08;3.95;;;2.80;;
13879;SDS011;7010;48.200;16.332;2022-08-19T14:50:44;5.00;;;3.33;;
13879;SDS011;7010;48.200;16.332;2022-08-19T14:53:13;6.63;;;3.53;;
13879;SDS011;7010;48.200;16.332;2022-08-19T14:55:43;4.78;;;3.00;;
13879;SDS011;7010;48.200;16.332;2022-08-19T14:58:13;10.30;;;2.97;;
13879;SDS011;7010;48.200;16.332;2022-08-19T15:00:55;10.80;;;3.42;;
13879;SDS011;7010;48.200;16.332;2022-08-19T15:03:26;3.03;;;2.65;;
13879;SDS011;7010;48.200;16.332;2022-08-19T15:05:55;4.50;;;2.30;;
13879;SDS011;7010;48.200;16.332;2022-08-19T15:08:24;4.53;;;2.78;;
13879;SDS011;7010;48.200;16.332;2022-08-19T15:10:53;3.92;;;2.35;;
13879;SDS011;7010;48.200;16.332;2022-08-19T15:13:22;3.72;;;2.80;;